createdAt,value
2022-12-03T00:01:20.001Z,8.80
2022-12-03T00:03:47.670Z,8.80
2022-12-03T00:06:15.411Z,8.80
2022-12-03T00:08:43.024Z,8.80
2022-12-03T00:11:10.508Z,8.80
2022-12-03T00:13:38.022Z,8.80
2022-12-03T00:16:05.757Z,8.80
2022-12-03T00:18:33.394Z,8.80
2022-12-03T00:21:00.909Z,8.80
2022-12-03T00:23:28.508Z,8.80
2022-12-03T00:25:56.066Z,8.80
2022-12-03T00:28:23.684Z,8.90
2022-12-03T00:30:54.365Z,8.80
2022-12-03T00:33:22.255Z,8.80
2022-12-03T00:35:49.808Z,8.70
2022-12-03T00:38:17.579Z,8.70
2022-12-03T00:40:45.176Z,8.70
2022-12-03T00:43:12.697Z,8.60
2022-12-03T00:45:40.232Z,8.60
2022-12-03T00:48:07.785Z,8.50
2022-12-03T00:50:35.383Z,8.50
2022-12-03T00:53:03.017Z,8.40
2022-12-03T00:55:30.548Z,8.40
2022-12-03T00:57:58.155Z,8.40
2022-12-03T01:00:25.720Z,8.40
2022-12-03T01:02:53.352Z,8.40
2022-12-03T01:05:21.019Z,8.40
2022-12-03T01:07:48.732Z,8.40
2022-12-03T01:10:16.511Z,8.30
2022-12-03T01:12:44.028Z,8.30
2022-12-03T01:15:11.839Z,8.20
2022-12-03T01:17:39.420Z,8.20
2022-12-03T01:20:08.080Z,8.30
2022-12-03T01:22:35.792Z,8.30
2022-12-03T01:25:03.961Z,8.20
2022-12-03T01:27:31.393Z,8.20
2022-12-03T01:29:58.987Z,8.10
2022-12-03T01:32:26.463Z,8.30
2022-12-03T01:34:56.009Z,8.40
2022-12-03T01:37:25.120Z,8.40
2022-12-03T01:39:52.708Z,8.20
2022-12-03T01:42:31.186Z,8.20
2022-12-03T01:44:59.272Z,8.30
2022-12-03T01:47:34.921Z,8.50
2022-12-03T01:50:08.618Z,8.60
2022-12-03T01:52:37.398Z,8.60
2022-12-03T01:55:06.866Z,8.50
2022-12-03T01:57:54.590Z,8.40
2022-12-03T02:00:24.015Z,8.30
2022-12-03T02:02:59.868Z,8.30
2022-12-03T02:05:29.101Z,8.30
2022-12-03T02:07:57.213Z,8.30
2022-12-03T02:10:30.458Z,8.30
2022-12-03T02:13:01.010Z,8.30
2022-12-03T02:15:28.807Z,8.30
2022-12-03T02:17:56.934Z,8.30
2022-12-03T02:20:24.542Z,8.60
2022-12-03T02:23:18.443Z,8.70
2022-12-03T02:25:46.523Z,8.60
2022-12-03T02:28:14.368Z,8.40
2022-12-03T02:30:42.087Z,8.40
2022-12-03T02:33:09.680Z,8.40
2022-12-03T02:35:37.806Z,8.50
2022-12-03T02:38:08.676Z,8.70
2022-12-03T02:40:36.264Z,8.80
2022-12-03T02:43:04.354Z,8.80
2022-12-03T02:45:34.534Z,8.80
2022-12-03T02:48:05.725Z,8.60
2022-12-03T02:50:36.155Z,8.50
2022-12-03T02:53:06.932Z,8.60
2022-12-03T02:55:37.079Z,8.60
2022-12-03T02:58:05.516Z,8.50
2022-12-03T03:00:33.813Z,8.50
2022-12-03T03:03:02.766Z,8.40
2022-12-03T03:05:30.925Z,8.30
2022-12-03T03:07:59.756Z,8.30
2022-12-03T03:10:28.364Z,8.30
2022-12-03T03:12:56.330Z,8.30
2022-12-03T03:15:24.750Z,8.30
2022-12-03T03:17:52.268Z,8.30
2022-12-03T03:20:19.847Z,8.40
2022-12-03T03:22:47.369Z,8.50
2022-12-03T03:25:16.974Z,8.50
2022-12-03T03:27:45.085Z,8.60
2022-12-03T03:30:13.674Z,8.60
2022-12-03T03:32:41.858Z,8.60
2022-12-03T03:35:10.453Z,8.60
2022-12-03T03:37:38.370Z,8.50
2022-12-03T03:40:06.490Z,8.50
2022-12-03T03:42:34.238Z,8.60
2022-12-03T03:45:01.879Z,8.60
2022-12-03T03:47:29.417Z,8.70
2022-12-03T03:49:57.107Z,8.70
2022-12-03T03:52:24.838Z,8.70
2022-12-03T03:54:52.770Z,8.80
2022-12-03T03:57:20.607Z,8.80
2022-12-03T03:59:48.246Z,8.80
2022-12-03T04:02:23.256Z,8.80
2022-12-03T04:04:52.008Z,8.90
2022-12-03T04:07:19.945Z,8.80
2022-12-03T04:09:47.619Z,8.90
2022-12-03T04:12:33.630Z,9.00
2022-12-03T04:15:01.299Z,9.00
2022-12-03T04:17:28.910Z,9.00
2022-12-03T04:19:56.396Z,9.00
2022-12-03T04:22:42.164Z,9.00
2022-12-03T04:25:29.332Z,9.00
2022-12-03T04:28:15.377Z,9.00
2022-12-03T04:30:43.023Z,9.00
2022-12-03T04:33:29.240Z,9.00
2022-12-03T04:35:56.859Z,9.10
2022-12-03T04:38:24.415Z,9.10
2022-12-03T04:41:01.106Z,9.10
2022-12-03T04:43:29.396Z,9.10
2022-12-03T04:45:56.930Z,9.00
2022-12-03T04:48:24.625Z,9.00
2022-12-03T04:50:52.304Z,9.00
2022-12-03T04:53:19.906Z,9.00
2022-12-03T04:55:47.444Z,9.00
2022-12-03T04:58:15.136Z,8.90
2022-12-03T05:00:42.634Z,8.90
2022-12-03T05:03:10.111Z,8.90
2022-12-03T05:05:37.633Z,8.90
2022-12-03T05:08:05.351Z,8.90
2022-12-03T05:10:33.033Z,8.90
2022-12-03T05:13:00.525Z,8.90
2022-12-03T05:15:28.082Z,8.90
2022-12-03T05:17:55.676Z,8.90
2022-12-03T05:20:41.723Z,8.90
2022-12-03T05:23:09.704Z,8.90
2022-12-03T05:25:37.307Z,8.90
2022-12-03T05:28:06.342Z,8.90
2022-12-03T05:30:33.928Z,8.90
2022-12-03T05:33:01.547Z,8.90
2022-12-03T05:35:29.078Z,8.90
2022-12-03T05:37:56.696Z,8.90
2022-12-03T05:40:24.218Z,8.90
2022-12-03T05:42:54.629Z,8.90
2022-12-03T05:45:23.630Z,9.00
2022-12-03T05:47:51.452Z,9.00
2022-12-03T05:50:19.615Z,8.90
2022-12-03T05:52:47.495Z,8.90
2022-12-03T05:55:15.598Z,8.90
2022-12-03T05:57:43.207Z,8.90
2022-12-03T06:00:15.577Z,8.90
2022-12-03T06:02:43.813Z,8.90
2022-12-03T06:05:12.445Z,8.90
2022-12-03T06:07:56.020Z,8.80
2022-12-03T06:10:26.230Z,8.90
2022-12-03T06:12:53.923Z,8.90
2022-12-03T06:15:21.875Z,8.90
2022-12-03T06:17:49.605Z,8.90
2022-12-03T06:20:18.618Z,8.80
2022-12-03T06:22:46.557Z,8.80
2022-12-03T06:25:14.530Z,8.80
2022-12-03T06:27:42.240Z,8.80
2022-12-03T06:30:12.437Z,8.80
2022-12-03T06:32:40.243Z,8.80
2022-12-03T06:35:08.244Z,8.70
2022-12-03T06:37:36.216Z,8.70
2022-12-03T06:40:04.205Z,8.80
2022-12-03T06:42:33.293Z,8.80
2022-12-03T06:45:01.062Z,8.70
2022-12-03T06:47:30.610Z,8.80
2022-12-03T06:49:58.138Z,8.80
2022-12-03T06:52:25.764Z,8.80
2022-12-03T06:54:53.592Z,8.80
2022-12-03T06:57:21.390Z,8.80
2022-12-03T06:59:49.006Z,8.70
2022-12-03T07:02:16.529Z,8.90
2022-12-03T07:04:46.458Z,8.90
2022-12-03T07:07:14.463Z,8.90
2022-12-03T07:09:42.006Z,9.00
2022-12-03T07:12:09.529Z,8.90
2022-12-03T07:14:37.176Z,8.90
2022-12-03T07:17:04.809Z,8.90
2022-12-03T07:19:33.202Z,8.90
2022-12-03T07:22:01.046Z,8.90
2022-12-03T07:24:28.632Z,9.00
2022-12-03T07:26:56.275Z,9.10
2022-12-03T07:29:24.001Z,9.40
2022-12-03T07:31:51.790Z,9.50
2022-12-03T07:34:19.525Z,9.40
2022-12-03T07:36:47.121Z,9.30
2022-12-03T07:39:14.839Z,9.20
2022-12-03T07:41:42.603Z,9.20
2022-12-03T07:44:14.206Z,9.20
2022-12-03T07:46:42.989Z,9.20
2022-12-03T07:49:12.366Z,9.10
2022-12-03T07:51:40.190Z,9.20
2022-12-03T07:54:07.914Z,9.20
2022-12-03T07:56:35.515Z,9.20
2022-12-03T07:59:03.083Z,9.20
2022-12-03T08:01:30.707Z,9.20
2022-12-03T08:03:58.549Z,9.20
2022-12-03T08:06:26.322Z,9.20
2022-12-03T08:08:53.899Z,9.30
2022-12-03T08:11:21.595Z,9.20
2022-12-03T08:13:49.176Z,9.30
2022-12-03T08:16:18.164Z,9.30
2022-12-03T08:18:46.737Z,9.40
2022-12-03T08:21:15.677Z,9.40
2022-12-03T08:23:43.665Z,9.40
2022-12-03T08:26:21.595Z,9.50
2022-12-03T08:28:49.474Z,9.40
2022-12-03T08:31:20.186Z,9.50
2022-12-03T08:33:49.157Z,9.50
2022-12-03T08:36:27.034Z,9.50
2022-12-03T08:39:00.111Z,9.50
2022-12-03T08:41:48.248Z,9.50
2022-12-03T08:44:25.384Z,9.60
2022-12-03T08:46:54.622Z,9.60
2022-12-03T08:49:22.953Z,9.70
2022-12-03T08:51:54.808Z,9.70
2022-12-03T08:54:22.635Z,9.70
2022-12-03T08:56:50.270Z,9.80
2022-12-03T08:59:26.994Z,9.80
2022-12-03T09:01:55.385Z,9.80
2022-12-03T09:04:24.640Z,9.90
2022-12-03T09:06:53.193Z,9.90
2022-12-03T09:09:21.247Z,9.90
2022-12-03T09:11:48.877Z,10.00
2022-12-03T09:14:18.873Z,10.00
2022-12-03T09:16:47.282Z,10.10
2022-12-03T09:19:15.372Z,10.20
2022-12-03T09:21:43.050Z,10.20
2022-12-03T09:24:10.667Z,10.20
2022-12-03T09:26:38.529Z,10.20
2022-12-03T09:29:11.667Z,10.20
2022-12-03T09:31:40.362Z,10.20
2022-12-03T09:34:08.512Z,10.30
2022-12-03T09:36:36.085Z,10.30
2022-12-03T09:39:03.877Z,10.30
2022-12-03T09:41:31.534Z,10.30
2022-12-03T09:44:08.635Z,10.30
2022-12-03T09:46:39.797Z,10.30
2022-12-03T09:49:15.343Z,10.30
2022-12-03T09:51:43.801Z,10.40
2022-12-03T09:54:23.244Z,10.40
2022-12-03T09:56:51.363Z,10.40
2022-12-03T09:59:19.008Z,10.40
2022-12-03T10:01:46.578Z,10.40
2022-12-03T10:04:14.398Z,10.40
2022-12-03T10:06:45.743Z,10.40
2022-12-03T10:09:14.871Z,10.50
2022-12-03T10:11:42.571Z,10.50
2022-12-03T10:14:12.153Z,10.50
2022-12-03T10:16:40.558Z,10.50
2022-12-03T10:19:11.878Z,10.60
2022-12-03T10:21:39.428Z,10.60
2022-12-03T10:24:20.681Z,10.60
2022-12-03T10:26:49.158Z,10.70
2022-12-03T10:29:26.819Z,10.70
2022-12-03T10:31:58.432Z,10.70
2022-12-03T10:34:27.004Z,10.70
2022-12-03T10:37:14.289Z,10.80
2022-12-03T10:39:59.073Z,10.90
2022-12-03T10:42:30.822Z,11.00
2022-12-03T10:45:07.716Z,11.10
2022-12-03T10:47:35.468Z,11.10
2022-12-03T10:50:06.234Z,11.10
2022-12-03T10:52:33.968Z,11.10
2022-12-03T10:55:01.680Z,11.10
2022-12-03T10:57:29.252Z,11.10
2022-12-03T10:59:56.890Z,11.00
2022-12-03T11:02:24.937Z,11.00
2022-12-03T11:04:52.984Z,11.00
2022-12-03T11:07:22.195Z,11.00
2022-12-03T11:09:51.350Z,11.00
2022-12-03T11:12:23.176Z,11.00
2022-12-03T11:14:57.891Z,11.10
2022-12-03T11:17:25.501Z,11.10
2022-12-03T11:19:53.141Z,11.20
2022-12-03T11:22:38.089Z,11.20
2022-12-03T11:25:29.126Z,11.20
2022-12-03T11:28:09.493Z,11.20
2022-12-03T11:30:58.604Z,11.10
2022-12-03T11:33:26.256Z,11.20
2022-12-03T11:36:02.864Z,11.20
2022-12-03T11:38:52.937Z,11.20
2022-12-03T11:41:26.096Z,11.20
2022-12-03T11:43:53.739Z,11.20
2022-12-03T11:46:28.763Z,11.20
2022-12-03T11:48:57.357Z,11.30
2022-12-03T11:51:26.751Z,11.30
2022-12-03T11:53:55.592Z,11.30
2022-12-03T11:56:25.106Z,11.30
2022-12-03T11:59:02.623Z,11.30
2022-12-03T12:01:38.634Z,11.30
2022-12-03T12:04:07.619Z,11.30
2022-12-03T12:06:42.683Z,11.30
2022-12-03T12:09:10.327Z,11.30
2022-12-03T12:11:42.036Z,11.30
2022-12-03T12:14:09.672Z,11.30
2022-12-03T12:16:38.862Z,11.30
2022-12-03T12:19:25.204Z,11.40
2022-12-03T12:21:53.375Z,11.30
2022-12-03T12:24:48.534Z,11.30
2022-12-03T12:27:18.860Z,11.30
2022-12-03T12:29:54.614Z,11.30
2022-12-03T12:32:29.451Z,11.20
2022-12-03T12:35:15.754Z,11.20
2022-12-03T12:37:48.129Z,11.10
2022-12-03T12:40:18.399Z,10.90
2022-12-03T12:42:51.273Z,10.90
2022-12-03T12:45:23.208Z,10.90
2022-12-03T12:48:01.507Z,10.90
2022-12-03T12:50:30.872Z,10.90
2022-12-03T12:53:03.587Z,10.80
2022-12-03T12:55:31.255Z,10.80
2022-12-03T12:58:02.634Z,10.80
2022-12-03T13:00:30.210Z,10.60
2022-12-03T13:03:02.924Z,10.70
2022-12-03T13:05:49.548Z,10.70
2022-12-03T13:08:17.093Z,10.70
2022-12-03T13:10:44.611Z,10.70
2022-12-03T13:13:19.933Z,10.70
2022-12-03T13:15:47.399Z,10.70
2022-12-03T13:18:26.788Z,10.60
2022-12-03T13:20:55.164Z,10.70
2022-12-03T13:23:27.852Z,10.60
2022-12-03T13:26:01.982Z,10.60
2022-12-03T13:28:36.242Z,10.50
2022-12-03T13:31:18.549Z,10.50
2022-12-03T13:33:46.082Z,10.40
2022-12-03T13:36:15.195Z,10.50
2022-12-03T13:38:43.497Z,10.50
2022-12-03T13:41:33.533Z,10.50
2022-12-03T13:44:01.112Z,10.60
2022-12-03T13:46:32.696Z,10.60
2022-12-03T13:49:02.026Z,10.60
2022-12-03T13:51:32.359Z,10.60
2022-12-03T13:54:00.298Z,10.70
2022-12-03T13:56:28.008Z,10.70
2022-12-03T13:58:56.650Z,10.60
2022-12-03T14:01:24.354Z,10.70
2022-12-03T14:03:51.914Z,10.70
2022-12-03T14:06:19.540Z,10.70
2022-12-03T14:08:47.207Z,10.70
2022-12-03T14:11:34.698Z,10.60
2022-12-03T14:14:02.299Z,10.60
2022-12-03T14:16:29.759Z,10.70
2022-12-03T14:18:57.342Z,10.70
2022-12-03T14:21:24.883Z,10.70
2022-12-03T14:23:52.373Z,10.80
2022-12-03T14:26:19.773Z,10.70
2022-12-03T14:28:47.316Z,10.70
2022-12-03T14:31:14.907Z,10.60
2022-12-03T14:33:42.501Z,10.70
2022-12-03T14:36:09.985Z,10.70
2022-12-03T14:38:37.441Z,10.70
2022-12-03T14:41:04.914Z,10.70
2022-12-03T14:43:32.357Z,10.70
2022-12-03T14:45:59.987Z,10.60
2022-12-03T14:48:28.368Z,10.60
2022-12-03T14:50:55.764Z,10.60
2022-12-03T14:53:27.243Z,10.60
2022-12-03T14:55:56.052Z,10.60
2022-12-03T14:58:23.485Z,10.60
2022-12-03T15:00:50.922Z,10.60
2022-12-03T15:03:18.520Z,10.60
2022-12-03T15:05:45.976Z,10.50
2022-12-03T15:08:13.513Z,10.50
2022-12-03T15:10:40.988Z,10.50
2022-12-03T15:13:08.470Z,10.50
2022-12-03T15:15:35.942Z,10.50
2022-12-03T15:18:03.442Z,10.50
2022-12-03T15:20:31.476Z,10.40
2022-12-03T15:22:59.048Z,10.40
2022-12-03T15:25:26.413Z,10.40
2022-12-03T15:27:53.950Z,10.40
2022-12-03T15:30:21.560Z,10.40
2022-12-03T15:32:49.038Z,10.40
2022-12-03T15:35:18.758Z,10.40
2022-12-03T15:37:46.241Z,10.50
2022-12-03T15:40:13.852Z,10.50
2022-12-03T15:42:41.417Z,10.40
2022-12-03T15:45:13.615Z,10.40
2022-12-03T15:47:42.901Z,10.30
2022-12-03T15:50:10.600Z,10.40
2022-12-03T15:52:38.108Z,10.40
2022-12-03T15:55:05.722Z,10.30
2022-12-03T15:57:33.268Z,10.30
2022-12-03T16:00:00.765Z,10.20
2022-12-03T16:02:34.187Z,10.20
2022-12-03T16:05:02.381Z,10.30
2022-12-03T16:07:29.922Z,10.20
2022-12-03T16:09:57.653Z,10.30
2022-12-03T16:12:25.273Z,10.20
2022-12-03T16:14:52.866Z,10.10
2022-12-03T16:17:20.732Z,10.10
2022-12-03T16:19:49.113Z,10.20
2022-12-03T16:22:16.822Z,10.20
2022-12-03T16:24:44.370Z,10.20
2022-12-03T16:27:12.009Z,10.20
2022-12-03T16:29:39.495Z,10.20
2022-12-03T16:32:07.028Z,10.20
2022-12-03T16:34:35.395Z,10.20
2022-12-03T16:37:05.051Z,10.20
2022-12-03T16:39:35.544Z,10.20
2022-12-03T16:42:05.773Z,10.20
2022-12-03T16:44:54.547Z,10.20
2022-12-03T16:47:22.535Z,10.20
2022-12-03T16:49:50.237Z,10.10
2022-12-03T16:52:17.814Z,10.30
2022-12-03T16:54:45.421Z,10.30
2022-12-03T16:57:12.930Z,10.30
2022-12-03T16:59:40.868Z,10.30
2022-12-03T17:02:09.033Z,10.30
2022-12-03T17:04:36.545Z,10.30
2022-12-03T17:07:04.133Z,10.30
2022-12-03T17:09:31.748Z,10.30
2022-12-03T17:11:59.769Z,10.40
2022-12-03T17:14:31.589Z,10.30
2022-12-03T17:17:00.929Z,10.30
2022-12-03T17:19:28.718Z,10.30
2022-12-03T17:21:56.295Z,10.20
2022-12-03T17:24:23.692Z,10.20
2022-12-03T17:26:51.218Z,10.30
2022-12-03T17:29:19.906Z,10.20
2022-12-03T17:31:47.385Z,10.30
2022-12-03T17:34:14.898Z,10.30
2022-12-03T17:36:42.415Z,10.30
2022-12-03T17:39:09.846Z,10.20
2022-12-03T17:41:37.385Z,10.20
2022-12-03T17:44:10.169Z,10.20
2022-12-03T17:46:39.076Z,10.20
2022-12-03T17:49:06.696Z,10.20
2022-12-03T17:51:34.347Z,10.30
2022-12-03T17:54:01.930Z,10.30
2022-12-03T17:56:29.409Z,10.20
2022-12-03T17:58:57.358Z,10.20
2022-12-03T18:01:24.885Z,10.30
2022-12-03T18:03:52.666Z,10.30
2022-12-03T18:06:20.322Z,10.30
2022-12-03T18:08:47.792Z,10.30
2022-12-03T18:11:15.310Z,10.30
2022-12-03T18:13:42.824Z,10.30
2022-12-03T18:16:10.457Z,10.30
2022-12-03T18:18:37.979Z,10.30
2022-12-03T18:21:05.617Z,10.40
2022-12-03T18:23:33.700Z,10.40
2022-12-03T18:26:02.468Z,10.40
2022-12-03T18:28:31.496Z,10.40
2022-12-03T18:30:59.617Z,10.50
2022-12-03T18:33:27.480Z,10.50
2022-12-03T18:35:56.601Z,10.50
2022-12-03T18:38:27.671Z,10.50
2022-12-03T18:40:56.602Z,10.50
2022-12-03T18:43:26.270Z,10.50
2022-12-03T18:45:54.275Z,10.40
2022-12-03T18:48:21.957Z,10.50
2022-12-03T18:50:49.465Z,10.40
2022-12-03T18:53:18.296Z,10.50
2022-12-03T18:55:46.832Z,10.50
2022-12-03T18:58:14.372Z,10.60
2022-12-03T19:00:42.695Z,10.50
2022-12-03T19:03:10.323Z,10.50
2022-12-03T19:05:37.994Z,10.50
2022-12-03T19:08:14.235Z,10.50
2022-12-03T19:10:42.643Z,10.50
2022-12-03T19:13:10.287Z,10.50
2022-12-03T19:15:38.231Z,10.50
2022-12-03T19:18:07.602Z,10.50
2022-12-03T19:20:35.077Z,10.50
2022-12-03T19:23:02.637Z,10.60
2022-12-03T19:25:30.418Z,10.60
2022-12-03T19:27:58.081Z,10.70
2022-12-03T19:30:25.698Z,10.60
2022-12-03T19:32:53.384Z,10.60
2022-12-03T19:35:21.543Z,10.70
2022-12-03T19:37:49.738Z,10.60
2022-12-03T19:40:17.645Z,10.70
2022-12-03T19:42:45.198Z,10.70
2022-12-03T19:45:12.810Z,10.70
2022-12-03T19:47:40.350Z,10.70
2022-12-03T19:50:08.815Z,10.70
2022-12-03T19:52:36.809Z,10.70
2022-12-03T19:55:04.728Z,10.60
2022-12-03T19:57:32.347Z,10.70
2022-12-03T20:00:01.351Z,10.70
2022-12-03T20:02:29.150Z,10.60
2022-12-03T20:04:56.759Z,10.60
2022-12-03T20:07:24.195Z,10.60
2022-12-03T20:09:52.894Z,10.60
2022-12-03T20:12:21.454Z,10.50
2022-12-03T20:14:50.210Z,10.50
2022-12-03T20:17:17.907Z,10.50
2022-12-03T20:19:45.487Z,10.50
2022-12-03T20:22:14.418Z,10.50
2022-12-03T20:24:42.064Z,10.50
2022-12-03T20:27:09.586Z,10.50
2022-12-03T20:29:37.204Z,10.50
2022-12-03T20:32:07.606Z,10.50
2022-12-03T20:34:36.203Z,10.50
2022-12-03T20:37:03.774Z,10.50
2022-12-03T20:39:31.345Z,10.50
2022-12-03T20:41:59.640Z,10.50
2022-12-03T20:44:27.889Z,10.40
2022-12-03T20:46:55.505Z,10.30
2022-12-03T20:49:23.103Z,10.40
2022-12-03T20:51:50.697Z,10.40
2022-12-03T20:54:19.522Z,10.30
2022-12-03T20:56:47.054Z,10.30
2022-12-03T20:59:16.369Z,10.30
2022-12-03T21:01:45.681Z,10.40
2022-12-03T21:04:13.869Z,10.40
2022-12-03T21:06:42.579Z,10.40
2022-12-03T21:09:11.132Z,10.40
2022-12-03T21:11:41.763Z,10.40
2022-12-03T21:14:11.098Z,10.50
2022-12-03T21:17:06.559Z,10.50
2022-12-03T21:19:28.058Z,10.50
2022-12-03T21:21:56.462Z,10.50
2022-12-03T21:24:24.143Z,10.50
2022-12-03T21:26:51.874Z,10.50
2022-12-03T21:29:19.391Z,10.50
2022-12-03T21:31:47.162Z,10.50
2022-12-03T21:34:14.896Z,10.50
2022-12-03T21:36:43.640Z,10.50
2022-12-03T21:39:11.456Z,10.60
2022-12-03T21:41:39.003Z,10.60
2022-12-03T21:44:06.726Z,10.60
2022-12-03T21:47:10.892Z,10.50
2022-12-03T21:49:23.013Z,10.60
2022-12-03T21:51:50.694Z,10.50
2022-12-03T21:54:18.618Z,10.50
2022-12-03T21:56:47.022Z,10.60
2022-12-03T21:59:14.621Z,10.60
2022-12-03T22:01:46.970Z,10.60
2022-12-03T22:04:17.318Z,10.70
2022-12-03T22:06:46.843Z,10.60
2022-12-03T22:09:19.436Z,10.60
2022-12-03T22:11:51.927Z,10.60
2022-12-03T22:14:21.124Z,10.60
2022-12-03T22:16:49.997Z,10.60
2022-12-03T22:19:18.180Z,10.60
2022-12-03T22:21:46.990Z,10.60
2022-12-03T22:24:14.679Z,10.60
2022-12-03T22:26:42.295Z,10.60
2022-12-03T22:29:10.657Z,10.60
2022-12-03T22:31:39.487Z,10.70
2022-12-03T22:34:07.045Z,10.60
2022-12-03T22:36:34.703Z,10.60
2022-12-03T22:39:02.205Z,10.70
2022-12-03T22:41:30.481Z,10.70
2022-12-03T22:43:58.915Z,10.70
2022-12-03T22:46:27.183Z,10.70
2022-12-03T22:48:54.858Z,10.70
2022-12-03T22:51:26.549Z,10.70
2022-12-03T22:53:55.504Z,10.70
2022-12-03T22:56:23.323Z,10.80
2022-12-03T22:58:51.348Z,10.70
2022-12-03T23:01:22.797Z,10.70
2022-12-03T23:03:51.390Z,10.70
2022-12-03T23:06:20.131Z,10.80
2022-12-03T23:08:47.983Z,10.70
2022-12-03T23:11:16.333Z,10.80
2022-12-03T23:13:43.903Z,10.70
2022-12-03T23:16:16.389Z,10.80
2022-12-03T23:18:44.493Z,10.70
2022-12-03T23:21:23.937Z,10.70
2022-12-03T23:23:55.062Z,10.70
2022-12-03T23:26:22.821Z,10.70
2022-12-03T23:28:51.083Z,10.70
2022-12-03T23:31:22.152Z,10.70
2022-12-03T23:33:51.553Z,10.70
2022-12-03T23:36:19.932Z,10.60
2022-12-03T23:38:48.766Z,10.60
2022-12-03T23:41:18.525Z,10.60
2022-12-03T23:43:46.967Z,10.60
2022-12-03T23:46:16.092Z,10.60
2022-12-03T23:48:43.807Z,10.60
2022-12-03T23:51:12.655Z,10.60
2022-12-03T23:53:40.464Z,10.60
2022-12-03T23:56:08.361Z,10.70
2022-12-03T23:58:36.287Z,10.70
